Time;durP1;ratioP1;P1;durP2;ratioP2;P2;SDS_P1;SDS_P2;PMS_P1;PMS_P2;Temp;Humidity;BMP_temperature;BMP_pressure;BME280_temperature;BME280_humidity;BME280_pressure;Samples;Min_cycle;Max_cycle;Signal;HPM_P1;HPM_P2
2022/01/24 00:00:07;;;;;;;;;;;5.30;99.50;;;;;;5039892;28;19927;-70
2022/01/24 00:02:33;;;;;;;;;;;5.30;99.50;;;;;;5030820;28;19913;-70
2022/01/24 00:04:58;;;;;;;;;;;5.30;99.50;;;;;;5041711;28;20726;-70
2022/01/24 00:07:25;;;;;;;;;;;5.30;99.50;;;;;;5051025;28;20023;-70
2022/01/24 00:09:54;;;;;;;;;;;5.30;99.50;;;;;;5048358;28;20518;-70
2022/01/24 00:17:37;;;;;;;;;;;5.30;99.50;;;;;;5046166;28;19913;-70
2022/01/24 00:28:04;;;;;;;;;;;5.30;99.50;;;;;;5047372;28;19920;-70
2022/01/24 00:30:30;;;;;;;;;;;5.30;99.50;;;;;;5043501;28;19920;-70
2022/01/24 00:32:55;;;;;;;;;;;5.30;99.50;;;;;;5027621;28;20343;-70
2022/01/24 00:35:21;;;;;;;;;;;5.30;99.50;;;;;;5053816;28;19915;-70
2022/01/24 00:37:47;;;;;;;;;;;5.30;99.50;;;;;;5042090;28;19917;-70
2022/01/24 00:40:12;;;;;;;;;;;5.30;99.50;;;;;;5045795;28;19924;-70
2022/01/24 00:42:54;;;;;;;;;;;5.30;99.50;;;;;;5041422;28;20020;-70
2022/01/24 00:53:19;;;;;;;;;;;5.30;99.50;;;;;;5041021;28;19916;-70
2022/01/24 00:55:46;;;;;;;;;;;5.20;99.50;;;;;;5045547;28;20597;-70
2022/01/24 00:58:12;;;;;;;;;;;5.30;99.50;;;;;;5040124;28;19959;-70
2022/01/24 01:00:37;;;;;;;;;;;5.30;99.50;;;;;;5051606;28;19988;-70
2022/01/24 01:03:03;;;;;;;;;;;5.20;99.50;;;;;;5041085;28;19959;-70
2022/01/24 01:18:07;;;;;;;;;;;;;;;;;;;;;
2022/01/24 01:18:50;;;;;;;;;;;5.20;99.50;;;;;;5045438;28;19923;-70
2022/01/24 01:21:16;;;;;;;;;;;5.20;99.50;;;;;;5047139;28;19938;-70
2022/01/24 01:23:47;;;;;;;;;;;5.20;99.50;;;;;;5044036;28;20644;-70
2022/01/24 01:26:37;;;;;;;;;;;5.20;99.50;;;;;;5053042;28;19947;-70
2022/01/24 01:29:20;;;;;;;;;;;5.20;99.50;;;;;;5043704;28;19912;-70
2022/01/24 01:32:01;;;;;;;;;;;5.20;99.50;;;;;;5028789;28;19916;-70
2022/01/24 01:39:54;;;;;;;;;;;5.20;99.50;;;;;;5042654;28;19913;-70
2022/01/24 01:56:01;;;;;;;;;;;5.20;99.50;;;;;;5044680;28;19942;-70
2022/01/24 01:58:27;;;;;;;;;;;5.20;99.50;;;;;;5050453;28;20496;-70
2022/01/24 02:00:53;;;;;;;;;;;5.20;99.50;;;;;;5044962;28;20479;-70
2022/01/24 02:03:19;;;;;;;;;;;5.20;99.50;;;;;;5055497;28;19987;-70
2022/01/24 02:05:45;;;;;;;;;;;5.20;99.50;;;;;;5044608;28;20394;-70
2022/01/24 02:08:10;;;;;;;;;;;5.20;99.50;;;;;;5046168;28;19939;-70
2022/01/24 02:10:38;;;;;;;;;;;5.20;99.50;;;;;;5041574;28;19927;-70
2022/01/24 02:13:04;;;;;;;;;;;5.20;99.50;;;;;;5049652;28;20537;-70
2022/01/24 02:25:41;;;;;;;;;;;5.20;99.50;;;;;;5044844;28;20588;-70
2022/01/24 02:28:12;;;;;;;;;;;5.20;99.50;;;;;;5048186;28;19917;-70
2022/01/24 02:33:15;;;;;;;;;;;5.20;99.50;;;;;;5046269;28;20250;-70
2022/01/24 02:35:40;;;;;;;;;;;5.20;99.50;;;;;;5043801;28;19967;-70
2022/01/24 02:49:13;;;;;;;;;;;5.20;99.50;;;;;;5046653;28;19915;-70
2022/01/24 02:51:48;;;;;;;;;;;5.20;99.50;;;;;;5027818;28;19921;-70
2022/01/24 02:54:21;;;;;;;;;;;5.20;99.50;;;;;;5046562;28;19959;-70
2022/01/24 02:56:46;;;;;;;;;;;5.20;99.50;;;;;;5049762;28;19921;-70
2022/01/24 02:59:12;;;;;;;;;;;5.20;99.50;;;;;;5045843;28;19948;-70
2022/01/24 03:01:40;;;;;;;;;;;5.10;99.50;;;;;;5044395;28;19920;-70
2022/01/24 03:04:05;;;;;;;;;;;5.20;99.50;;;;;;5044321;28;20403;-70
2022/01/24 03:06:31;;;;;;;;;;;5.10;99.50;;;;;;5047822;28;19952;-70
2022/01/24 03:08:56;;;;;;;;;;;5.20;99.50;;;;;;5040523;28;19944;-70
2022/01/24 03:11:27;;;;;;;;;;;5.10;99.50;;;;;;5056574;28;20314;-70
2022/01/24 03:13:53;;;;;;;;;;;5.10;99.50;;;;;;5043324;28;19924;-70
2022/01/24 03:16:18;;;;;;;;;;;5.10;99.50;;;;;;5047383;28;19919;-70
2022/01/24 03:18:44;;;;;;;;;;;5.10;99.50;;;;;;5024876;28;21656;-70
2022/01/24 03:21:09;;;;;;;;;;;5.10;99.50;;;;;;5050402;28;19920;-70
2022/01/24 03:23:35;;;;;;;;;;;5.20;99.50;;;;;;5043272;28;19921;-70
2022/01/24 03:26:00;;;;;;;;;;;5.10;99.50;;;;;;5045104;28;19912;-70
2022/01/24 03:28:26;;;;;;;;;;;5.10;99.50;;;;;;5039342;28;19913;-70
2022/01/24 03:30:52;;;;;;;;;;;5.10;99.80;;;;;;5044403;28;20358;-70
2022/01/24 03:33:17;;;;;;;;;;;5.10;99.50;;;;;;5045130;28;19916;-70
2022/01/24 03:35:43;;;;;;;;;;;5.10;99.50;;;;;;5044658;28;20561;-70
2022/01/24 03:38:09;;;;;;;;;;;5.10;99.50;;;;;;5054204;28;19917;-70
2022/01/24 03:40:35;;;;;;;;;;;5.10;99.50;;;;;;5044093;28;19940;-70
2022/01/24 03:43:00;;;;;;;;;;;5.10;99.50;;;;;;5049625;28;19928;-70
2022/01/24 03:48:10;;;;;;;;;;;5.10;99.50;;;;;;5048848;28;19995;-70
2022/01/24 03:50:36;;;;;;;;;;;5.10;99.50;;;;;;5042720;28;19916;-70
2022/01/24 03:53:02;;;;;;;;;;;5.10;99.50;;;;;;5040140;28;19947;-70
2022/01/24 03:55:27;;;;;;;;;;;5.10;99.50;;;;;;5041190;28;19970;-70
2022/01/24 03:57:53;;;;;;;;;;;5.10;99.50;;;;;;5047410;28;19919;-70
2022/01/24 04:00:19;;;;;;;;;;;5.10;99.50;;;;;;5044627;28;19921;-70
2022/01/24 04:02:44;;;;;;;;;;;5.10;99.50;;;;;;5045799;28;19920;-71
2022/01/24 04:05:10;;;;;;;;;;;5.10;99.50;;;;;;5046867;28;20129;-70
2022/01/24 04:07:36;;;;;;;;;;;5.10;99.50;;;;;;5045050;28;19920;-70
2022/01/24 04:10:07;;;;;;;;;;;5.10;99.50;;;;;;5044700;28;20570;-70
2022/01/24 04:12:33;;;;;;;;;;;5.10;99.50;;;;;;5042329;28;19919;-70
2022/01/24 04:17:44;;;;;;;;;;;5.10;99.50;;;;;;5044228;28;19908;-70
2022/01/24 04:22:57;;;;;;;;;;;5.10;99.50;;;;;;5044830;28;19924;-70
2022/01/24 04:25:23;;;;;;;;;;;5.10;99.50;;;;;;5044043;28;20594;-70
2022/01/24 04:27:53;;;;;;;;;;;5.10;99.50;;;;;;5044084;28;19983;-70
2022/01/24 04:30:18;;;;;;;;;;;5.10;99.50;;;;;;5048538;28;20278;-71
2022/01/24 04:32:44;;;;;;;;;;;5.10;99.50;;;;;;5043263;28;19939;-70
2022/01/24 04:35:09;;;;;;;;;;;5.10;99.50;;;;;;5057268;28;20400;-70
2022/01/24 04:37:35;;;;;;;;;;;5.10;99.50;;;;;;5024507;28;20346;-70
2022/01/24 04:40:01;;;;;;;;;;;5.10;99.50;;;;;;5054052;28;20544;-70
2022/01/24 04:42:38;;;;;;;;;;;5.10;99.50;;;;;;5042829;28;19913;-70
2022/01/24 04:53:46;;;;;;;;;;;5.10;99.50;;;;;;5046938;28;20245;-70
2022/01/24 04:56:11;;;;;;;;;;;5.10;99.50;;;;;;5052532;28;19909;-70
2022/01/24 04:58:37;;;;;;;;;;;5.10;99.50;;;;;;5047709;28;19912;-70
2022/01/24 05:01:02;;;;;;;;;;;5.10;99.50;;;;;;5048913;28;19959;-70
2022/01/24 05:03:28;;;;;;;;;;;5.10;99.50;;;;;;5043789;28;19917;-70
2022/01/24 05:05:53;;;;;;;;;;;5.10;99.50;;;;;;5056590;28;20296;-71
2022/01/24 05:08:19;;;;;;;;;;;5.10;99.50;;;;;;5046228;28;19923;-70
2022/01/24 05:11:06;;;;;;;;;;;5.10;99.50;;;;;;5047316;28;19975;-70
2022/01/24 05:24:28;;;;;;;;;;;5.10;99.50;;;;;;5045022;28;19920;-70
2022/01/24 05:26:54;;;;;;;;;;;5.00;99.50;;;;;;5032942;28;20435;-70
2022/01/24 05:29:20;;;;;;;;;;;5.10;99.50;;;;;;5025070;28;19971;-70
2022/01/24 05:31:45;;;;;;;;;;;5.00;99.50;;;;;;5046721;28;19919;-70
2022/01/24 05:34:10;;;;;;;;;;;5.10;99.50;;;;;;5048237;28;19927;-70
2022/01/24 05:36:36;;;;;;;;;;;5.10;99.50;;;;;;5048162;28;20461;-70
2022/01/24 05:39:03;;;;;;;;;;;5.00;99.50;;;;;;5044120;28;19917;-70
2022/01/24 05:41:28;;;;;;;;;;;5.10;99.50;;;;;;5047161;28;19919;-70
2022/01/24 05:43:54;;;;;;;;;;;5.10;99.50;;;;;;5045213;28;19916;-70
2022/01/24 05:46:19;;;;;;;;;;;5.10;99.50;;;;;;5045886;28;20010;-70
2022/01/24 05:48:45;;;;;;;;;;;5.00;99.50;;;;;;5047474;28;19920;-70
2022/01/24 05:51:10;;;;;;;;;;;5.00;99.50;;;;;;5046362;28;19925;-70
2022/01/24 05:53:36;;;;;;;;;;;5.10;99.50;;;;;;5045136;28;19923;-70
2022/01/24 05:56:01;;;;;;;;;;;5.10;99.50;;;;;;5046207;28;19913;-70
2022/01/24 05:58:27;;;;;;;;;;;5.00;99.50;;;;;;5054217;28;19917;-70
2022/01/24 06:00:52;;;;;;;;;;;5.10;99.50;;;;;;5044776;28;19927;-70
2022/01/24 06:03:18;;;;;;;;;;;5.00;99.50;;;;;;5046767;28;19915;-70
2022/01/24 06:05:43;;;;;;;;;;;5.00;99.50;;;;;;5039769;28;20070;-70
2022/01/24 06:08:09;;;;;;;;;;;5.00;99.50;;;;;;5051313;28;19912;-70
2022/01/24 06:10:37;;;;;;;;;;;5.10;99.50;;;;;;5044368;28;19974;-70
2022/01/24 06:13:02;;;;;;;;;;;5.10;99.50;;;;;;5046155;28;19913;-70
2022/01/24 06:15:28;;;;;;;;;;;5.00;99.50;;;;;;5050057;28;19943;-70
2022/01/24 06:17:53;;;;;;;;;;;5.00;99.50;;;;;;5046075;28;20417;-70
2022/01/24 06:20:19;;;;;;;;;;;5.10;99.50;;;;;;5047221;28;20432;-70
2022/01/24 06:22:44;;;;;;;;;;;5.10;99.50;;;;;;5045616;28;20004;-70
2022/01/24 06:25:10;;;;;;;;;;;5.00;99.50;;;;;;5029829;28;19970;-70
2022/01/24 06:27:36;;;;;;;;;;;5.00;99.50;;;;;;5045572;28;20507;-70
2022/01/24 06:30:02;;;;;;;;;;;5.00;99.50;;;;;;5044895;28;19917;-70
2022/01/24 06:32:27;;;;;;;;;;;5.00;99.50;;;;;;5044766;28;19920;-70
2022/01/24 06:34:53;;;;;;;;;;;5.00;99.50;;;;;;5047552;28;19989;-71
2022/01/24 06:37:18;;;;;;;;;;;5.00;99.50;;;;;;5043953;28;19932;-70
2022/01/24 06:39:44;;;;;;;;;;;5.00;99.50;;;;;;5046328;28;19916;-70
2022/01/24 06:42:21;;;;;;;;;;;5.00;99.40;;;;;;5043934;28;19978;-70
2022/01/24 06:44:46;;;;;;;;;;;5.00;99.50;;;;;;5032066;28;19925;-71
2022/01/24 06:47:12;;;;;;;;;;;5.00;99.40;;;;;;5042224;28;19928;-70
2022/01/24 06:49:37;;;;;;;;;;;5.00;99.50;;;;;;5040223;28;19917;-70
2022/01/24 06:52:06;;;;;;;;;;;5.00;99.40;;;;;;5048930;28;19916;-70
2022/01/24 06:54:32;;;;;;;;;;;5.00;99.40;;;;;;5046239;28;19921;-70
2022/01/24 06:56:57;;;;;;;;;;;5.00;99.50;;;;;;5040095;28;19981;-70
2022/01/24 06:59:23;;;;;;;;;;;5.00;99.50;;;;;;5045154;28;20561;-71
2022/01/24 07:01:48;;;;;;;;;;;5.00;99.50;;;;;;5041764;28;20514;-70
2022/01/24 07:04:14;;;;;;;;;;;5.00;99.40;;;;;;5044386;28;19917;-70
2022/01/24 07:06:39;;;;;;;;;;;5.00;99.40;;;;;;5047965;28;20763;-70
2022/01/24 07:09:05;;;;;;;;;;;5.00;99.50;;;;;;5043829;28;20015;-71
2022/01/24 07:11:30;;;;;;;;;;;5.00;99.40;;;;;;5044327;28;19952;-70
2022/01/24 07:13:56;;;;;;;;;;;5.00;99.40;;;;;;5044671;28;19913;-70
2022/01/24 07:16:22;;;;;;;;;;;5.00;99.40;;;;;;5050192;28;19955;-70
2022/01/24 07:19:02;;;;;;;;;;;5.00;99.40;;;;;;5044075;28;20019;-70
2022/01/24 07:21:28;;;;;;;;;;;5.00;99.40;;;;;;5060216;28;20301;-70
2022/01/24 07:23:53;;;;;;;;;;;5.00;99.40;;;;;;5041705;28;19916;-70
2022/01/24 07:26:19;;;;;;;;;;;5.00;99.40;;;;;;5047758;28;20000;-70
2022/01/24 07:28:44;;;;;;;;;;;5.00;99.40;;;;;;5042710;28;20338;-70
2022/01/24 07:31:10;;;;;;;;;;;5.00;99.40;;;;;;5044659;28;19978;-70
2022/01/24 07:33:36;;;;;;;;;;;5.00;99.40;;;;;;5046411;28;19916;-70
2022/01/24 07:36:02;;;;;;;;;;;5.00;99.40;;;;;;5045793;28;19920;-70
2022/01/24 07:38:27;;;;;;;;;;;5.00;99.40;;;;;;5047035;28;19917;-71
2022/01/24 07:40:55;;;;;;;;;;;5.00;99.40;;;;;;5043712;28;20007;-70
2022/01/24 07:43:20;;;;;;;;;;;5.00;99.40;;;;;;5030916;28;19948;-70
2022/01/24 07:45:47;;;;;;;;;;;5.00;99.40;;;;;;5041632;28;20003;-70
2022/01/24 07:48:13;;;;;;;;;;;5.00;99.40;;;;;;5045534;28;19920;-70
2022/01/24 07:50:41;;;;;;;;;;;5.00;99.40;;;;;;5043967;28;20715;-70
2022/01/24 07:53:16;;;;;;;;;;;5.00;99.40;;;;;;5044556;28;19921;-70
2022/01/24 07:55:41;;;;;;;;;;;5.00;99.40;;;;;;5044958;28;19917;-70
2022/01/24 07:58:07;;;;;;;;;;;5.00;99.40;;;;;;5042088;28;19977;-70
2022/01/24 08:00:33;;;;;;;;;;;5.00;99.70;;;;;;5046405;28;19967;-70
2022/01/24 08:02:58;;;;;;;;;;;5.00;99.40;;;;;;5044247;28;19909;-70
2022/01/24 08:05:25;;;;;;;;;;;5.00;99.40;;;;;;5044217;28;20325;-70
2022/01/24 08:07:50;;;;;;;;;;;5.00;99.40;;;;;;5044359;28;19924;-70
2022/01/24 08:10:16;;;;;;;;;;;5.00;99.40;;;;;;5043555;28;19921;-70
2022/01/24 08:12:43;;;;;;;;;;;5.00;99.40;;;;;;5044164;28;19913;-70
2022/01/24 08:15:11;;;;;;;;;;;5.00;99.40;;;;;;5042608;28;19921;-70
2022/01/24 08:17:37;;;;;;;;;;;5.00;99.40;;;;;;5031344;28;19916;-70
2022/01/24 08:20:03;;;;;;;;;;;5.00;99.40;;;;;;5034039;28;19917;-70
2022/01/24 08:22:29;;;;;;;;;;;5.00;99.40;;;;;;5050249;28;19917;-70
2022/01/24 08:24:54;;;;;;;;;;;5.00;99.40;;;;;;5049404;28;20415;-70
2022/01/24 08:27:20;;;;;;;;;;;5.00;99.40;;;;;;5049183;28;19921;-70
2022/01/24 08:29:46;;;;;;;;;;;5.00;99.40;;;;;;5049172;28;19939;-70
2022/01/24 08:32:11;;;;;;;;;;;5.00;99.40;;;;;;5050423;28;19913;-71
2022/01/24 08:34:38;;;;;;;;;;;5.00;99.40;;;;;;5050403;28;20620;-70
2022/01/24 08:37:04;;;;;;;;;;;5.00;99.40;;;;;;5051713;28;19921;-70
2022/01/24 08:39:29;;;;;;;;;;;5.00;99.40;;;;;;5050540;28;19952;-70
2022/01/24 08:46:49;;;;;;;;;;;5.00;99.30;;;;;;5049193;28;20018;-70
2022/01/24 08:49:14;;;;;;;;;;;5.10;99.40;;;;;;5050140;28;19912;-69
2022/01/24 08:51:40;;;;;;;;;;;5.00;99.30;;;;;;5053596;28;19924;-69
2022/01/24 08:54:06;;;;;;;;;;;5.00;99.30;;;;;;5033719;28;19917;-69
2022/01/24 08:56:32;;;;;;;;;;;5.10;99.30;;;;;;5048949;28;19920;-69
2022/01/24 08:58:58;;;;;;;;;;;5.00;99.30;;;;;;5047655;28;19944;-69
2022/01/24 09:01:23;;;;;;;;;;;5.10;99.30;;;;;;5048393;28;19963;-69
2022/01/24 09:03:49;;;;;;;;;;;5.10;99.30;;;;;;5048802;28;19966;-70
2022/01/24 09:06:17;;;;;;;;;;;5.10;99.30;;;;;;5048244;28;19947;-70
2022/01/24 09:08:43;;;;;;;;;;;5.10;99.30;;;;;;5050751;28;19926;-69
2022/01/24 09:11:09;;;;;;;;;;;5.10;99.30;;;;;;5050847;28;19916;-69
2022/01/24 09:13:34;;;;;;;;;;;5.10;99.30;;;;;;5050852;28;20011;-69
2022/01/24 09:16:00;;;;;;;;;;;5.10;99.30;;;;;;5050302;28;19913;-69
2022/01/24 09:18:27;;;;;;;;;;;5.10;99.30;;;;;;5049580;28;19920;-69
2022/01/24 09:20:52;;;;;;;;;;;5.10;99.30;;;;;;5049635;28;20038;-68
2022/01/24 09:23:18;;;;;;;;;;;5.10;99.30;;;;;;5049868;28;20015;-68
2022/01/24 09:25:44;;;;;;;;;;;5.10;99.30;;;;;;5051328;28;20050;-68
2022/01/24 09:28:10;;;;;;;;;;;5.10;99.30;;;;;;5049649;28;19917;-68
2022/01/24 09:30:35;;;;;;;;;;;5.10;99.30;;;;;;5044966;28;19924;-68
2022/01/24 09:33:01;;;;;;;;;;;5.10;99.20;;;;;;5028854;28;19917;-68
2022/01/24 09:35:28;;;;;;;;;;;5.10;99.20;;;;;;5045689;28;19920;-68
2022/01/24 09:37:54;;;;;;;;;;;5.10;99.20;;;;;;5041126;28;20341;-68
2022/01/24 09:40:20;;;;;;;;;;;5.20;99.20;;;;;;5045706;28;19921;-68
2022/01/24 09:42:46;;;;;;;;;;;5.10;99.20;;;;;;5044500;28;19916;-68
2022/01/24 09:45:13;;;;;;;;;;;5.20;99.20;;;;;;5046073;28;19923;-68
2022/01/24 09:47:38;;;;;;;;;;;5.20;99.20;;;;;;5044148;28;19917;-68
2022/01/24 09:50:05;;;;;;;;;;;5.20;99.20;;;;;;5045972;28;20734;-68
2022/01/24 09:52:31;;;;;;;;;;;5.20;99.20;;;;;;5046325;28;20534;-68
2022/01/24 09:54:57;;;;;;;;;;;5.20;99.20;;;;;;5048500;28;20531;-68
2022/01/24 09:57:22;;;;;;;;;;;5.20;99.20;;;;;;5046550;28;19999;-68
2022/01/24 09:59:49;;;;;;;;;;;5.20;99.20;;;;;;5044447;28;19917;-68
2022/01/24 10:02:14;;;;;;;;;;;5.20;99.20;;;;;;5046258;28;19923;-68
2022/01/24 10:04:40;;;;;;;;;;;5.20;99.20;;;;;;5046618;28;19917;-68
2022/01/24 10:07:08;;;;;;;;;;;5.20;99.10;;;;;;5029098;28;20015;-68
2022/01/24 10:09:34;;;;;;;;;;;5.20;99.10;;;;;;5044868;28;20019;-68
2022/01/24 10:12:08;;;;;;;;;;;5.30;99.20;;;;;;5046449;28;19921;-68
2022/01/24 10:17:32;;;;;;;;;;;5.30;99.20;;;;;;5045972;28;19963;-68
2022/01/24 10:20:14;;;;;;;;;;;5.30;99.20;;;;;;5042901;28;19917;-68
2022/01/24 10:22:39;;;;;;;;;;;5.30;99.10;;;;;;5061845;28;19927;-68
2022/01/24 10:25:08;;;;;;;;;;;5.30;99.10;;;;;;5044062;28;19913;-68
2022/01/24 10:27:33;;;;;;;;;;;5.30;99.10;;;;;;5044238;28;19916;-68
2022/01/24 10:30:03;;;;;;;;;;;5.30;99.10;;;;;;5047344;28;19927;-68
2022/01/24 10:32:31;;;;;;;;;;;5.30;99.10;;;;;;5061227;28;19917;-68
2022/01/24 10:35:17;;;;;;;;;;;5.30;99.10;;;;;;5042912;28;20003;-68
2022/01/24 10:37:42;;;;;;;;;;;5.30;99.10;;;;;;5046728;28;19996;-68
2022/01/24 10:40:19;;;;;;;;;;;5.30;99.00;;;;;;5043808;28;19977;-68
2022/01/24 10:42:55;;;;;;;;;;;5.40;99.10;;;;;;5044693;28;19959;-68
2022/01/24 10:45:23;;;;;;;;;;;5.40;99.00;;;;;;5045170;28;19960;-68
2022/01/24 10:47:50;;;;;;;;;;;5.40;99.00;;;;;;5049461;28;19923;-68
2022/01/24 10:50:28;;;;;;;;;;;5.40;99.00;;;;;;5044576;28;19917;-68
2022/01/24 10:52:53;;;;;;;;;;;5.40;99.00;;;;;;5043446;28;19921;-69
2022/01/24 10:55:19;;;;;;;;;;;5.40;98.90;;;;;;5026594;28;19924;-68
2022/01/24 10:57:48;;;;;;;;;;;5.50;99.00;;;;;;5048890;28;19917;-68
2022/01/24 11:00:18;;;;;;;;;;;5.50;99.00;;;;;;5041677;28;19999;-68
2022/01/24 11:02:45;;;;;;;;;;;5.50;98.90;;;;;;5050672;28;19920;-68
2022/01/24 11:05:11;;;;;;;;;;;5.50;98.90;;;;;;5030720;28;19925;-68
2022/01/24 11:07:56;;;;;;;;;;;5.50;98.90;;;;;;5044145;28;19932;-68
2022/01/24 11:10:23;;;;;;;;;;;5.50;98.90;;;;;;5044204;28;19917;-68
2022/01/24 11:12:49;;;;;;;;;;;5.50;98.90;;;;;;5045921;28;20410;-68
2022/01/24 11:15:14;;;;;;;;;;;5.50;98.90;;;;;;5027042;28;20019;-68
2022/01/24 11:17:42;;;;;;;;;;;5.50;98.90;;;;;;5046801;28;19947;-68
2022/01/24 11:20:11;;;;;;;;;;;5.60;98.80;;;;;;5043193;28;19913;-68
2022/01/24 11:22:42;;;;;;;;;;;5.60;98.80;;;;;;5044861;28;19996;-68
2022/01/24 11:25:09;;;;;;;;;;;5.60;98.80;;;;;;5041741;28;19943;-68
2022/01/24 11:27:35;;;;;;;;;;;5.60;98.70;;;;;;5042200;28;19964;-68
2022/01/24 11:30:14;;;;;;;;;;;5.70;98.70;;;;;;5028928;28;19927;-68
2022/01/24 11:32:52;;;;;;;;;;;5.70;98.60;;;;;;5042405;28;19916;-68
2022/01/24 11:35:29;;;;;;;;;;;5.70;98.60;;;;;;5044262;28;20023;-68
2022/01/24 11:37:55;;;;;;;;;;;5.70;98.60;;;;;;5046169;28;20676;-68
2022/01/24 11:40:23;;;;;;;;;;;5.70;98.60;;;;;;5044190;28;19920;-69
2022/01/24 11:42:50;;;;;;;;;;;5.70;98.50;;;;;;5057833;28;20733;-68
2022/01/24 11:45:18;;;;;;;;;;;5.70;98.50;;;;;;5043017;28;20007;-68
2022/01/24 11:47:46;;;;;;;;;;;5.70;98.50;;;;;;5039578;28;19920;-68
2022/01/24 11:50:23;;;;;;;;;;;5.70;98.50;;;;;;5046588;28;20406;-68
2022/01/24 11:52:49;;;;;;;;;;;5.80;98.80;;;;;;5040004;28;19923;-69
2022/01/24 11:55:20;;;;;;;;;;;5.70;98.50;;;;;;5046946;28;19917;-68
2022/01/24 11:57:49;;;;;;;;;;;5.80;98.60;;;;;;5041955;28;20004;-68
2022/01/24 12:00:38;;;;;;;;;;;5.80;98.50;;;;;;5045070;28;19917;-68
2022/01/24 12:03:13;;;;;;;;;;;5.80;98.50;;;;;;5028042;28;19917;-68
2022/01/24 12:05:48;;;;;;;;;;;5.80;98.60;;;;;;5052092;28;19923;-68
2022/01/24 12:08:27;;;;;;;;;;;5.80;98.60;;;;;;5041474;28;19959;-68
2022/01/24 12:10:55;;;;;;;;;;;5.80;98.60;;;;;;5043291;28;19924;-68
2022/01/24 12:13:35;;;;;;;;;;;5.80;98.60;;;;;;5058441;28;20361;-69
2022/01/24 12:16:02;;;;;;;;;;;5.80;98.60;;;;;;5041713;28;19996;-68
2022/01/24 12:18:29;;;;;;;;;;;5.80;98.60;;;;;;5041339;28;19921;-68
2022/01/24 12:20:57;;;;;;;;;;;5.80;98.50;;;;;;5044793;28;19930;-68
2022/01/24 12:23:27;;;;;;;;;;;5.80;98.60;;;;;;5059130;28;20309;-68
2022/01/24 12:25:56;;;;;;;;;;;5.80;98.60;;;;;;5045718;28;19974;-68
2022/01/24 12:28:32;;;;;;;;;;;5.80;98.60;;;;;;5041066;28;20740;-68
2022/01/24 12:30:58;;;;;;;;;;;5.80;98.50;;;;;;5027137;28;19921;-68
2022/01/24 12:33:40;;;;;;;;;;;5.90;98.60;;;;;;5042597;28;20663;-68
2022/01/24 12:36:07;;;;;;;;;;;5.90;98.50;;;;;;5038938;28;19916;-68
2022/01/24 12:38:39;;;;;;;;;;;5.90;98.50;;;;;;5040840;28;19943;-68
2022/01/24 12:41:14;;;;;;;;;;;5.90;98.50;;;;;;5041834;28;19916;-68
2022/01/24 12:43:54;;;;;;;;;;;5.90;98.50;;;;;;5040244;28;20165;-68
2022/01/24 12:46:27;;;;;;;;;;;5.90;98.50;;;;;;5041484;28;19917;-68
2022/01/24 12:48:56;;;;;;;;;;;5.90;98.50;;;;;;5038005;28;19921;-68
2022/01/24 12:51:22;;;;;;;;;;;5.90;98.50;;;;;;5040698;28;19925;-68
2022/01/24 12:53:49;;;;;;;;;;;5.90;98.50;;;;;;5040864;28;19925;-68
2022/01/24 12:56:16;;;;;;;;;;;5.90;98.50;;;;;;5041808;28;20724;-68
2022/01/24 12:58:43;;;;;;;;;;;5.90;98.50;;;;;;5043293;28;19952;-68
2022/01/24 13:01:24;;;;;;;;;;;5.90;98.40;;;;;;5025099;28;19943;-68
2022/01/24 13:03:54;;;;;;;;;;;5.90;98.50;;;;;;5060512;28;20401;-68
2022/01/24 13:06:20;;;;;;;;;;;5.90;98.40;;;;;;5044867;28;19917;-68
2022/01/24 13:08:56;;;;;;;;;;;5.90;98.50;;;;;;5049271;28;19958;-68
2022/01/24 13:11:22;;;;;;;;;;;5.90;98.50;;;;;;5045079;28;19921;-68
2022/01/24 13:14:01;;;;;;;;;;;5.90;98.50;;;;;;5050966;28;20595;-68
2022/01/24 13:22:15;;;;;;;;;;;5.90;98.50;;;;;;5049647;28;20027;-68
2022/01/24 13:24:59;;;;;;;;;;;5.90;98.40;;;;;;5049074;28;19920;-69
2022/01/24 13:27:34;;;;;;;;;;;6.00;98.50;;;;;;5045196;28;19913;-68
2022/01/24 13:30:00;;;;;;;;;;;5.90;98.50;;;;;;5045656;28;19925;-68
2022/01/24 13:32:46;;;;;;;;;;;6.00;98.50;;;;;;5044763;28;19919;-68
2022/01/24 13:35:16;;;;;;;;;;;5.90;98.50;;;;;;5045125;28;19924;-68
2022/01/24 13:37:42;;;;;;;;;;;6.00;98.50;;;;;;5044343;28;19962;-68
2022/01/24 13:40:08;;;;;;;;;;;5.90;98.50;;;;;;5047901;28;19912;-69
2022/01/24 13:42:34;;;;;;;;;;;6.00;98.50;;;;;;5044989;28;19916;-69
2022/01/24 13:44:59;;;;;;;;;;;5.90;98.50;;;;;;5048801;28;20023;-68
2022/01/24 13:47:25;;;;;;;;;;;5.90;98.50;;;;;;5045247;28;21334;-68
2022/01/24 13:49:50;;;;;;;;;;;5.90;98.40;;;;;;5055970;28;19924;-68
2022/01/24 13:52:18;;;;;;;;;;;5.90;98.50;;;;;;5043938;28;19942;-68
2022/01/24 13:54:44;;;;;;;;;;;5.90;98.40;;;;;;5048525;28;19920;-68
2022/01/24 13:57:15;;;;;;;;;;;5.90;98.50;;;;;;5024350;28;19916;-68
2022/01/24 13:59:42;;;;;;;;;;;5.90;98.50;;;;;;5050897;28;19963;-68
2022/01/24 14:02:22;;;;;;;;;;;5.90;98.50;;;;;;5043978;28;19924;-69
2022/01/24 14:04:52;;;;;;;;;;;5.90;98.50;;;;;;5048621;28;19955;-69
2022/01/24 14:07:21;;;;;;;;;;;5.90;98.40;;;;;;5048508;28;19927;-68
2022/01/24 14:09:49;;;;;;;;;;;5.90;98.50;;;;;;5048398;28;20405;-68
2022/01/24 14:12:16;;;;;;;;;;;5.90;98.50;;;;;;5045913;28;19955;-68
2022/01/24 14:14:47;;;;;;;;;;;;;;;;;;;;;
2022/01/24 14:17:24;;;;;;;;;;;5.90;98.50;;;;;;5049568;28;19917;-68
2022/01/24 14:20:01;;;;;;;;;;;5.90;98.60;;;;;;5044614;28;20480;-69
2022/01/24 14:22:55;;;;;;;;;;;5.90;98.50;;;;;;5046026;28;19996;-68
2022/01/24 14:25:22;;;;;;;;;;;5.90;98.50;;;;;;5035704;28;19995;-68
2022/01/24 14:27:55;;;;;;;;;;;5.80;98.60;;;;;;5048350;28;19916;-69
2022/01/24 14:30:27;;;;;;;;;;;5.80;98.50;;;;;;5043646;28;19940;-68
2022/01/24 14:33:02;;;;;;;;;;;5.80;98.60;;;;;;5047148;28;20070;-68
2022/01/24 14:35:30;;;;;;;;;;;5.80;98.50;;;;;;5043362;28;19928;-68
2022/01/24 14:37:56;;;;;;;;;;;5.80;98.60;;;;;;5046044;28;20549;-68
2022/01/24 14:40:52;;;;;;;;;;;5.80;98.50;;;;;;5043608;28;19924;-69
2022/01/24 14:46:06;;;;;;;;;;;5.80;98.60;;;;;;5042662;28;19935;-68
2022/01/24 14:48:40;;;;;;;;;;;5.80;98.50;;;;;;5046393;28;19917;-68
2022/01/24 14:51:05;;;;;;;;;;;5.80;98.50;;;;;;5035059;28;20282;-69
2022/01/24 14:53:34;;;;;;;;;;;5.80;98.60;;;;;;5043840;28;19940;-68
2022/01/24 14:56:00;;;;;;;;;;;5.80;98.50;;;;;;5029016;28;20000;-68
2022/01/24 14:58:25;;;;;;;;;;;5.80;98.60;;;;;;5052585;28;20007;-68
2022/01/24 15:00:51;;;;;;;;;;;5.80;98.60;;;;;;5044247;28;20600;-68
2022/01/24 15:03:17;;;;;;;;;;;5.80;98.60;;;;;;5049167;28;20532;-68
2022/01/24 15:05:42;;;;;;;;;;;5.70;98.60;;;;;;5043644;28;19917;-68
2022/01/24 15:08:08;;;;;;;;;;;5.80;98.70;;;;;;5054072;28;19916;-68
2022/01/24 15:10:35;;;;;;;;;;;5.70;98.70;;;;;;5043613;28;21139;-69
2022/01/24 15:13:04;;;;;;;;;;;5.70;98.70;;;;;;5046852;28;20302;-68
2022/01/24 15:15:32;;;;;;;;;;;5.70;98.70;;;;;;5042833;28;19917;-69
2022/01/24 15:25:52;;;;;;;;;;;5.70;98.80;;;;;;5037354;28;20443;-69
2022/01/24 15:28:18;;;;;;;;;;;5.70;98.80;;;;;;5043572;28;19908;-69
2022/01/24 15:30:43;;;;;;;;;;;5.70;98.80;;;;;;5021169;28;19932;-69
2022/01/24 15:33:09;;;;;;;;;;;5.70;98.80;;;;;;5043536;28;19916;-69
2022/01/24 15:35:34;;;;;;;;;;;5.70;98.80;;;;;;5047048;28;19916;-69
2022/01/24 15:38:04;;;;;;;;;;;5.60;98.80;;;;;;5042386;28;20003;-69
2022/01/24 15:40:30;;;;;;;;;;;5.60;98.80;;;;;;5045131;28;20584;-69
2022/01/24 15:48:23;;;;;;;;;;;5.60;98.90;;;;;;5041847;28;20593;-69
2022/01/24 15:50:49;;;;;;;;;;;5.60;98.90;;;;;;5047667;28;20035;-69
2022/01/24 15:53:14;;;;;;;;;;;5.60;98.80;;;;;;5040654;28;19913;-69
2022/01/24 15:55:49;;;;;;;;;;;5.60;98.80;;;;;;5049912;28;19924;-69
2022/01/24 15:58:22;;;;;;;;;;;5.60;98.90;;;;;;5041476;28;19959;-69
2022/01/24 16:00:48;;;;;;;;;;;5.60;98.90;;;;;;5055556;28;20565;-69
2022/01/24 16:03:13;;;;;;;;;;;5.60;98.90;;;;;;5042411;28;20011;-69
2022/01/24 16:05:39;;;;;;;;;;;5.60;98.90;;;;;;5049484;28;19916;-69
2022/01/24 16:08:11;;;;;;;;;;;5.60;98.90;;;;;;5041313;28;19963;-69
2022/01/24 16:10:37;;;;;;;;;;;5.50;98.90;;;;;;5050787;28;19912;-69
2022/01/24 16:13:03;;;;;;;;;;;5.50;98.90;;;;;;5039748;28;19913;-69
2022/01/24 16:15:29;;;;;;;;;;;5.50;98.90;;;;;;5041973;28;19931;-69
2022/01/24 16:17:55;;;;;;;;;;;5.50;98.90;;;;;;5038854;28;19923;-69
2022/01/24 16:25:39;;;;;;;;;;;5.50;98.90;;;;;;5042844;28;19921;-69
2022/01/24 16:28:05;;;;;;;;;;;5.50;98.90;;;;;;5039718;28;19909;-69
2022/01/24 16:30:30;;;;;;;;;;;5.50;98.90;;;;;;5044148;28;20445;-69
2022/01/24 16:32:57;;;;;;;;;;;5.50;99.00;;;;;;5041458;28;20469;-69
2022/01/24 16:35:22;;;;;;;;;;;5.50;98.90;;;;;;5028057;28;19928;-69
2022/01/24 16:37:48;;;;;;;;;;;5.50;98.90;;;;;;5051461;28;19939;-69
2022/01/24 16:40:22;;;;;;;;;;;5.50;98.90;;;;;;5045238;28;19921;-69
2022/01/24 16:48:16;;;;;;;;;;;5.50;98.90;;;;;;5047358;28;20436;-69
2022/01/24 16:50:41;;;;;;;;;;;5.50;98.90;;;;;;5045977;28;19913;-69
2022/01/24 16:53:12;;;;;;;;;;;5.40;98.90;;;;;;5059627;28;19909;-69
2022/01/24 16:55:38;;;;;;;;;;;5.40;99.00;;;;;;5044832;28;19923;-69
2022/01/24 16:58:04;;;;;;;;;;;5.40;98.90;;;;;;5050387;28;19913;-68